sensor_id;sensor_type;location;lat;lon;timestamp;P1;durP1;ratioP1;P2;durP2;ratioP2
16468;SDS011;8345;50.902;6.956;2023-09-12T00:01:26;9.30;;;7.93;;
16468;SDS011;8345;50.902;6.956;2023-09-12T00:03:53;9.88;;;8.43;;
16468;SDS011;8345;50.902;6.956;2023-09-12T00:06:21;8.30;;;7.50;;
16468;SDS011;8345;50.902;6.956;2023-09-12T00:08:48;8.02;;;7.22;;
16468;SDS011;8345;50.902;6.956;2023-09-12T00:11:16;9.37;;;7.63;;
16468;SDS011;8345;50.902;6.956;2023-09-12T00:13:43;8.60;;;7.73;;
16468;SDS011;8345;50.902;6.956;2023-09-12T00:16:10;8.00;;;7.17;;
16468;SDS011;8345;50.902;6.956;2023-09-12T00:18:38;8.10;;;6.87;;
16468;SDS011;8345;50.902;6.956;2023-09-12T00:21:05;7.93;;;7.13;;
16468;SDS011;8345;50.902;6.956;2023-09-12T00:23:33;8.20;;;6.93;;
16468;SDS011;8345;50.902;6.956;2023-09-12T00:26:01;8.20;;;7.37;;
16468;SDS011;8345;50.902;6.956;2023-09-12T00:28:28;7.90;;;7.13;;
16468;SDS011;8345;50.902;6.956;2023-09-12T00:30:55;8.23;;;7.17;;
16468;SDS011;8345;50.902;6.956;2023-09-12T00:33:22;8.03;;;7.20;;
16468;SDS011;8345;50.902;6.956;2023-09-12T00:35:49;8.00;;;7.27;;
16468;SDS011;8345;50.902;6.956;2023-09-12T00:38:16;7.47;;;6.57;;
16468;SDS011;8345;50.902;6.956;2023-09-12T00:40:45;7.90;;;7.20;;
16468;SDS011;8345;50.902;6.956;2023-09-12T00:43:12;9.43;;;7.93;;
16468;SDS011;8345;50.902;6.956;2023-09-12T00:45:39;8.83;;;8.03;;
16468;SDS011;8345;50.902;6.956;2023-09-12T00:48:06;9.07;;;8.17;;
16468;SDS011;8345;50.902;6.956;2023-09-12T00:50:34;10.07;;;7.57;;
16468;SDS011;8345;50.902;6.956;2023-09-12T00:53:02;8.60;;;7.37;;
16468;SDS011;8345;50.902;6.956;2023-09-12T00:55:30;9.00;;;7.13;;
16468;SDS011;8345;50.902;6.956;2023-09-12T00:58:00;7.90;;;7.20;;
16468;SDS011;8345;50.902;6.956;2023-09-12T01:00:27;10.53;;;8.13;;
16468;SDS011;8345;50.902;6.956;2023-09-12T01:02:54;9.00;;;7.30;;
16468;SDS011;8345;50.902;6.956;2023-09-12T01:05:22;7.97;;;7.17;;
16468;SDS011;8345;50.902;6.956;2023-09-12T01:07:49;8.17;;;7.43;;
16468;SDS011;8345;50.902;6.956;2023-09-12T01:10:16;8.37;;;7.57;;
16468;SDS011;8345;50.902;6.956;2023-09-12T01:12:44;8.77;;;7.87;;
16468;SDS011;8345;50.902;6.956;2023-09-12T01:15:12;7.97;;;7.37;;
16468;SDS011;8345;50.902;6.956;2023-09-12T01:17:40;8.07;;;7.30;;
16468;SDS011;8345;50.902;6.956;2023-09-12T01:20:08;9.07;;;8.17;;
16468;SDS011;8345;50.902;6.956;2023-09-12T01:22:49;8.88;;;8.07;;
16468;SDS011;8345;50.902;6.956;2023-09-12T01:25:34;8.67;;;7.80;;
16468;SDS011;8345;50.902;6.956;2023-09-12T01:28:07;9.07;;;8.20;;
16468;SDS011;8345;50.902;6.956;2023-09-12T01:30:35;9.20;;;8.30;;
16468;SDS011;8345;50.902;6.956;2023-09-12T01:33:02;9.77;;;8.60;;
16468;SDS011;8345;50.902;6.956;2023-09-12T01:35:30;9.47;;;8.20;;
16468;SDS011;8345;50.902;6.956;2023-09-12T01:37:57;9.80;;;8.80;;
16468;SDS011;8345;50.902;6.956;2023-09-12T01:40:27;10.83;;;8.47;;
16468;SDS011;8345;50.902;6.956;2023-09-12T01:42:58;10.60;;;9.50;;
16468;SDS011;8345;50.902;6.956;2023-09-12T01:45:28;9.53;;;8.63;;
16468;SDS011;8345;50.902;6.956;2023-09-12T01:47:55;11.03;;;9.30;;
16468;SDS011;8345;50.902;6.956;2023-09-12T01:50:22;11.80;;;10.03;;
16468;SDS011;8345;50.902;6.956;2023-09-12T01:52:51;12.23;;;9.77;;
16468;SDS011;8345;50.902;6.956;2023-09-12T01:55:18;11.07;;;9.97;;
16468;SDS011;8345;50.902;6.956;2023-09-12T01:57:46;11.13;;;10.00;;
16468;SDS011;8345;50.902;6.956;2023-09-12T02:00:13;10.53;;;9.53;;
16468;SDS011;8345;50.902;6.956;2023-09-12T02:02:42;11.83;;;10.50;;
16468;SDS011;8345;50.902;6.956;2023-09-12T02:05:10;11.63;;;10.20;;
16468;SDS011;8345;50.902;6.956;2023-09-12T02:07:39;10.83;;;9.83;;
16468;SDS011;8345;50.902;6.956;2023-09-12T02:10:07;11.40;;;10.23;;
16468;SDS011;8345;50.902;6.956;2023-09-12T02:12:34;10.97;;;9.90;;
16468;SDS011;8345;50.902;6.956;2023-09-12T02:15:02;11.03;;;10.03;;
16468;SDS011;8345;50.902;6.956;2023-09-12T02:17:29;10.53;;;9.53;;
16468;SDS011;8345;50.902;6.956;2023-09-12T02:19:57;11.80;;;10.23;;
16468;SDS011;8345;50.902;6.956;2023-09-12T02:22:25;11.67;;;10.47;;
16468;SDS011;8345;50.902;6.956;2023-09-12T02:24:52;10.93;;;9.80;;
16468;SDS011;8345;50.902;6.956;2023-09-12T02:27:19;11.03;;;10.03;;
16468;SDS011;8345;50.902;6.956;2023-09-12T02:29:46;14.40;;;10.57;;
16468;SDS011;8345;50.902;6.956;2023-09-12T02:32:14;11.57;;;10.40;;
16468;SDS011;8345;50.902;6.956;2023-09-12T02:34:41;12.73;;;11.13;;
16468;SDS011;8345;50.902;6.956;2023-09-12T02:37:09;11.10;;;10.03;;
16468;SDS011;8345;50.902;6.956;2023-09-12T02:39:36;11.57;;;10.40;;
16468;SDS011;8345;50.902;6.956;2023-09-12T02:42:04;13.80;;;11.33;;
16468;SDS011;8345;50.902;6.956;2023-09-12T02:44:31;12.00;;;10.80;;
16468;SDS011;8345;50.902;6.956;2023-09-12T02:46:58;11.93;;;10.73;;
16468;SDS011;8345;50.902;6.956;2023-09-12T02:49:25;12.17;;;10.97;;
16468;SDS011;8345;50.902;6.956;2023-09-12T02:51:52;14.60;;;12.60;;
16468;SDS011;8345;50.902;6.956;2023-09-12T02:54:21;16.40;;;13.17;;
16468;SDS011;8345;50.902;6.956;2023-09-12T02:56:48;13.73;;;12.37;;
16468;SDS011;8345;50.902;6.956;2023-09-12T02:59:15;12.93;;;11.73;;
16468;SDS011;8345;50.902;6.956;2023-09-12T03:01:42;13.00;;;11.17;;
16468;SDS011;8345;50.902;6.956;2023-09-12T03:04:10;12.30;;;10.90;;
16468;SDS011;8345;50.902;6.956;2023-09-12T03:06:37;12.33;;;11.13;;
16468;SDS011;8345;50.902;6.956;2023-09-12T03:09:04;12.07;;;10.97;;
16468;SDS011;8345;50.902;6.956;2023-09-12T03:11:33;11.07;;;9.97;;
16468;SDS011;8345;50.902;6.956;2023-09-12T03:14:00;12.13;;;9.77;;
16468;SDS011;8345;50.902;6.956;2023-09-12T03:16:27;11.50;;;10.40;;
16468;SDS011;8345;50.902;6.956;2023-09-12T03:18:54;11.53;;;10.43;;
16468;SDS011;8345;50.902;6.956;2023-09-12T03:21:22;10.80;;;9.80;;
16468;SDS011;8345;50.902;6.956;2023-09-12T03:23:49;11.47;;;10.13;;
16468;SDS011;8345;50.902;6.956;2023-09-12T03:26:16;10.77;;;9.77;;
16468;SDS011;8345;50.902;6.956;2023-09-12T03:28:44;10.97;;;9.70;;
16468;SDS011;8345;50.902;6.956;2023-09-12T03:31:12;11.27;;;10.27;;
16468;SDS011;8345;50.902;6.956;2023-09-12T03:33:40;10.87;;;9.20;;
16468;SDS011;8345;50.902;6.956;2023-09-12T03:36:08;11.37;;;10.20;;
16468;SDS011;8345;50.902;6.956;2023-09-12T03:38:35;11.43;;;10.37;;
16468;SDS011;8345;50.902;6.956;2023-09-12T03:41:03;9.73;;;8.77;;
16468;SDS011;8345;50.902;6.956;2023-09-12T03:43:30;11.13;;;10.00;;
16468;SDS011;8345;50.902;6.956;2023-09-12T03:45:58;11.17;;;10.07;;
16468;SDS011;8345;50.902;6.956;2023-09-12T03:48:26;10.90;;;9.90;;
16468;SDS011;8345;50.902;6.956;2023-09-12T03:50:55;13.03;;;10.93;;
16468;SDS011;8345;50.902;6.956;2023-09-12T03:53:22;11.13;;;10.03;;
16468;SDS011;8345;50.902;6.956;2023-09-12T03:55:51;11.00;;;10.00;;
16468;SDS011;8345;50.902;6.956;2023-09-12T03:58:18;12.13;;;10.70;;
16468;SDS011;8345;50.902;6.956;2023-09-12T04:00:45;10.93;;;9.80;;
16468;SDS011;8345;50.902;6.956;2023-09-12T04:03:14;11.33;;;10.33;;
16468;SDS011;8345;50.902;6.956;2023-09-12T04:05:42;11.80;;;10.60;;
16468;SDS011;8345;50.902;6.956;2023-09-12T04:08:09;12.57;;;10.00;;
16468;SDS011;8345;50.902;6.956;2023-09-12T04:10:36;11.47;;;10.30;;
16468;SDS011;8345;50.902;6.956;2023-09-12T04:13:03;11.43;;;10.33;;
16468;SDS011;8345;50.902;6.956;2023-09-12T04:15:31;11.80;;;10.17;;
16468;SDS011;8345;50.902;6.956;2023-09-12T04:17:58;11.00;;;9.93;;
16468;SDS011;8345;50.902;6.956;2023-09-12T04:20:27;11.00;;;10.00;;
16468;SDS011;8345;50.902;6.956;2023-09-12T04:22:54;11.17;;;10.17;;
16468;SDS011;8345;50.902;6.956;2023-09-12T04:25:21;10.50;;;9.60;;
16468;SDS011;8345;50.902;6.956;2023-09-12T04:27:48;11.33;;;10.33;;
16468;SDS011;8345;50.902;6.956;2023-09-12T04:30:16;10.83;;;9.80;;
16468;SDS011;8345;50.902;6.956;2023-09-12T04:32:43;10.43;;;9.50;;
16468;SDS011;8345;50.902;6.956;2023-09-12T04:35:10;11.27;;;10.37;;
16468;SDS011;8345;50.902;6.956;2023-09-12T04:37:39;11.10;;;10.00;;
16468;SDS011;8345;50.902;6.956;2023-09-12T04:40:06;10.87;;;9.70;;
16468;SDS011;8345;50.902;6.956;2023-09-12T04:42:34;10.20;;;9.20;;
16468;SDS011;8345;50.902;6.956;2023-09-12T04:45:01;10.40;;;9.40;;
16468;SDS011;8345;50.902;6.956;2023-09-12T04:47:29;10.93;;;9.80;;
16468;SDS011;8345;50.902;6.956;2023-09-12T04:49:56;10.40;;;9.40;;
16468;SDS011;8345;50.902;6.956;2023-09-12T04:52:25;9.17;;;8.30;;
16468;SDS011;8345;50.902;6.956;2023-09-12T04:54:53;10.60;;;8.73;;
16468;SDS011;8345;50.902;6.956;2023-09-12T04:57:20;9.93;;;8.90;;
16468;SDS011;8345;50.902;6.956;2023-09-12T04:59:48;9.00;;;8.10;;
16468;SDS011;8345;50.902;6.956;2023-09-12T05:02:15;9.93;;;9.03;;
16468;SDS011;8345;50.902;6.956;2023-09-12T05:04:42;9.63;;;8.73;;
16468;SDS011;8345;50.902;6.956;2023-09-12T05:07:09;9.33;;;8.40;;
16468;SDS011;8345;50.902;6.956;2023-09-12T05:09:36;9.83;;;8.20;;
16468;SDS011;8345;50.902;6.956;2023-09-12T05:12:05;9.80;;;8.80;;
16468;SDS011;8345;50.902;6.956;2023-09-12T05:14:32;9.83;;;8.83;;
16468;SDS011;8345;50.902;6.956;2023-09-12T05:16:59;9.77;;;8.57;;
16468;SDS011;8345;50.902;6.956;2023-09-12T05:19:29;9.40;;;8.40;;
16468;SDS011;8345;50.902;6.956;2023-09-12T05:21:57;8.20;;;7.50;;
16468;SDS011;8345;50.902;6.956;2023-09-12T05:24:24;9.27;;;8.17;;
16468;SDS011;8345;50.902;6.956;2023-09-12T05:26:51;9.73;;;8.77;;
16468;SDS011;8345;50.902;6.956;2023-09-12T05:29:19;9.30;;;8.37;;
16468;SDS011;8345;50.902;6.956;2023-09-12T05:31:47;9.87;;;8.87;;
16468;SDS011;8345;50.902;6.956;2023-09-12T05:34:14;10.13;;;9.17;;
16468;SDS011;8345;50.902;6.956;2023-09-12T05:36:41;9.30;;;8.37;;
16468;SDS011;8345;50.902;6.956;2023-09-12T05:39:08;9.33;;;8.40;;
16468;SDS011;8345;50.902;6.956;2023-09-12T05:41:35;10.13;;;8.23;;
16468;SDS011;8345;50.902;6.956;2023-09-12T05:44:02;9.50;;;8.60;;
16468;SDS011;8345;50.902;6.956;2023-09-12T05:46:31;9.10;;;8.13;;
16468;SDS011;8345;50.902;6.956;2023-09-12T05:48:58;10.20;;;8.83;;
16468;SDS011;8345;50.902;6.956;2023-09-12T05:51:25;9.77;;;8.20;;
16468;SDS011;8345;50.902;6.956;2023-09-12T05:53:52;11.80;;;8.43;;
16468;SDS011;8345;50.902;6.956;2023-09-12T05:56:19;9.13;;;8.30;;
16468;SDS011;8345;50.902;6.956;2023-09-12T05:58:47;9.30;;;8.30;;
16468;SDS011;8345;50.902;6.956;2023-09-12T06:01:15;9.13;;;7.93;;
16468;SDS011;8345;50.902;6.956;2023-09-12T06:03:44;9.07;;;8.23;;
16468;SDS011;8345;50.902;6.956;2023-09-12T06:06:11;8.77;;;8.00;;
16468;SDS011;8345;50.902;6.956;2023-09-12T06:08:38;9.53;;;8.70;;
16468;SDS011;8345;50.902;6.956;2023-09-12T06:11:05;10.37;;;8.40;;
16468;SDS011;8345;50.902;6.956;2023-09-12T06:13:32;9.23;;;7.90;;
16468;SDS011;8345;50.902;6.956;2023-09-12T06:16:02;8.73;;;7.83;;
16468;SDS011;8345;50.902;6.956;2023-09-12T06:18:30;9.80;;;7.57;;
16468;SDS011;8345;50.902;6.956;2023-09-12T06:20:59;10.07;;;8.40;;
16468;SDS011;8345;50.902;6.956;2023-09-12T06:23:29;8.97;;;8.07;;
16468;SDS011;8345;50.902;6.956;2023-09-12T06:25:56;8.40;;;7.53;;
16468;SDS011;8345;50.902;6.956;2023-09-12T06:28:27;8.23;;;7.43;;
16468;SDS011;8345;50.902;6.956;2023-09-12T06:30:55;7.63;;;6.87;;
16468;SDS011;8345;50.902;6.956;2023-09-12T06:33:23;10.90;;;8.03;;
16468;SDS011;8345;50.902;6.956;2023-09-12T06:35:50;12.47;;;7.10;;
16468;SDS011;8345;50.902;6.956;2023-09-12T06:38:19;7.77;;;7.07;;
16468;SDS011;8345;50.902;6.956;2023-09-12T06:40:47;9.23;;;6.97;;
16468;SDS011;8345;50.902;6.956;2023-09-12T06:43:14;9.13;;;7.00;;
16468;SDS011;8345;50.902;6.956;2023-09-12T06:45:41;8.17;;;7.43;;
16468;SDS011;8345;50.902;6.956;2023-09-12T06:48:08;9.73;;;8.20;;
16468;SDS011;8345;50.902;6.956;2023-09-12T06:50:35;11.63;;;10.43;;
16468;SDS011;8345;50.902;6.956;2023-09-12T06:53:04;13.80;;;12.33;;
16468;SDS011;8345;50.902;6.956;2023-09-12T06:55:33;14.63;;;12.40;;
16468;SDS011;8345;50.902;6.956;2023-09-12T06:58:00;17.67;;;14.57;;
16468;SDS011;8345;50.902;6.956;2023-09-12T07:00:28;15.37;;;13.93;;
16468;SDS011;8345;50.902;6.956;2023-09-12T07:02:56;16.93;;;14.00;;
16468;SDS011;8345;50.902;6.956;2023-09-12T07:05:23;14.83;;;13.27;;
16468;SDS011;8345;50.902;6.956;2023-09-12T07:07:52;16.70;;;15.00;;
16468;SDS011;8345;50.902;6.956;2023-09-12T07:10:19;16.10;;;13.67;;
16468;SDS011;8345;50.902;6.956;2023-09-12T07:12:48;15.47;;;13.87;;
16468;SDS011;8345;50.902;6.956;2023-09-12T07:15:15;16.00;;;14.30;;
16468;SDS011;8345;50.902;6.956;2023-09-12T07:17:42;18.10;;;13.20;;
16468;SDS011;8345;50.902;6.956;2023-09-12T07:20:09;15.37;;;13.20;;
16468;SDS011;8345;50.902;6.956;2023-09-12T07:22:37;13.63;;;12.23;;
16468;SDS011;8345;50.902;6.956;2023-09-12T07:25:05;14.17;;;12.80;;
16468;SDS011;8345;50.902;6.956;2023-09-12T07:27:34;14.07;;;12.67;;
16468;SDS011;8345;50.902;6.956;2023-09-12T07:30:03;14.67;;;13.20;;
16468;SDS011;8345;50.902;6.956;2023-09-12T07:32:30;14.13;;;12.27;;
16468;SDS011;8345;50.902;6.956;2023-09-12T07:34:57;12.70;;;11.37;;
16468;SDS011;8345;50.902;6.956;2023-09-12T07:37:24;12.73;;;11.43;;
16468;SDS011;8345;50.902;6.956;2023-09-12T07:39:51;14.27;;;12.23;;
16468;SDS011;8345;50.902;6.956;2023-09-12T07:42:21;14.07;;;12.57;;
16468;SDS011;8345;50.902;6.956;2023-09-12T07:44:48;13.90;;;12.40;;
16468;SDS011;8345;50.902;6.956;2023-09-12T07:47:17;13.33;;;12.00;;
16468;SDS011;8345;50.902;6.956;2023-09-12T07:49:44;13.53;;;12.23;;
16468;SDS011;8345;50.902;6.956;2023-09-12T07:52:11;12.67;;;11.47;;
16468;SDS011;8345;50.902;6.956;2023-09-12T07:54:38;12.17;;;10.97;;
16468;SDS011;8345;50.902;6.956;2023-09-12T07:57:05;10.70;;;9.80;;
16468;SDS011;8345;50.902;6.956;2023-09-12T07:59:33;10.23;;;9.23;;
16468;SDS011;8345;50.902;6.956;2023-09-12T08:02:01;12.57;;;9.17;;
16468;SDS011;8345;50.902;6.956;2023-09-12T08:04:29;8.53;;;7.73;;
16468;SDS011;8345;50.902;6.956;2023-09-12T08:06:57;10.40;;;8.60;;
16468;SDS011;8345;50.902;6.956;2023-09-12T08:12:13;8.77;;;8.07;;
16468;SDS011;8345;50.902;6.956;2023-09-12T08:14:40;10.00;;;8.03;;
16468;SDS011;8345;50.902;6.956;2023-09-12T08:17:07;8.33;;;6.90;;
16468;SDS011;8345;50.902;6.956;2023-09-12T08:19:35;8.93;;;8.07;;
16468;SDS011;8345;50.902;6.956;2023-09-12T08:22:03;8.83;;;7.93;;
16468;SDS011;8345;50.902;6.956;2023-09-12T08:24:30;8.90;;;8.10;;
16468;SDS011;8345;50.902;6.956;2023-09-12T08:26:59;11.33;;;8.40;;
16468;SDS011;8345;50.902;6.956;2023-09-12T08:29:27;9.33;;;8.33;;
16468;SDS011;8345;50.902;6.956;2023-09-12T08:31:54;8.57;;;7.77;;
16468;SDS011;8345;50.902;6.956;2023-09-12T08:34:21;9.00;;;8.20;;
16468;SDS011;8345;50.902;6.956;2023-09-12T08:36:50;9.77;;;8.67;;
16468;SDS011;8345;50.902;6.956;2023-09-12T08:39:18;9.77;;;8.83;;
16468;SDS011;8345;50.902;6.956;2023-09-12T08:41:45;9.13;;;8.10;;
16468;SDS011;8345;50.902;6.956;2023-09-12T08:44:12;10.13;;;8.80;;
16468;SDS011;8345;50.902;6.956;2023-09-12T08:46:40;10.27;;;8.43;;
16468;SDS011;8345;50.902;6.956;2023-09-12T08:49:08;9.35;;;8.55;;
16468;SDS011;8345;50.902;6.956;2023-09-12T08:51:36;10.67;;;9.50;;
16468;SDS011;8345;50.902;6.956;2023-09-12T08:54:05;10.48;;;9.30;;
16468;SDS011;8345;50.902;6.956;2023-09-12T08:56:34;11.30;;;10.20;;
16468;SDS011;8345;50.902;6.956;2023-09-12T08:59:02;11.88;;;9.23;;
16468;SDS011;8345;50.902;6.956;2023-09-12T09:01:31;10.70;;;9.50;;
16468;SDS011;8345;50.902;6.956;2023-09-12T09:03:58;12.45;;;9.23;;
16468;SDS011;8345;50.902;6.956;2023-09-12T09:06:25;10.15;;;9.25;;
16468;SDS011;8345;50.902;6.956;2023-09-12T09:08:53;10.90;;;9.90;;
16468;SDS011;8345;50.902;6.956;2023-09-12T09:11:22;10.13;;;9.13;;
16468;SDS011;8345;50.902;6.956;2023-09-12T09:13:52;10.50;;;9.48;;
16468;SDS011;8345;50.902;6.956;2023-09-12T09:16:19;11.00;;;9.90;;
16468;SDS011;8345;50.902;6.956;2023-09-12T09:18:50;13.23;;;10.38;;
16468;SDS011;8345;50.902;6.956;2023-09-12T09:21:18;11.65;;;10.18;;
16468;SDS011;8345;50.902;6.956;2023-09-12T09:23:45;12.02;;;10.93;;
16468;SDS011;8345;50.902;6.956;2023-09-12T09:26:13;10.38;;;8.98;;
16468;SDS011;8345;50.902;6.956;2023-09-12T09:28:41;9.77;;;8.77;;
16468;SDS011;8345;50.902;6.956;2023-09-12T09:31:12;11.90;;;10.73;;
16468;SDS011;8345;50.902;6.956;2023-09-12T09:33:39;10.82;;;9.73;;
16468;SDS011;8345;50.902;6.956;2023-09-12T09:36:10;11.57;;;10.32;;
16468;SDS011;8345;50.902;6.956;2023-09-12T09:38:38;9.15;;;8.20;;
16468;SDS011;8345;50.902;6.956;2023-09-12T09:41:07;10.18;;;9.20;;
16468;SDS011;8345;50.902;6.956;2023-09-12T09:43:34;11.23;;;9.75;;
16468;SDS011;8345;50.902;6.956;2023-09-12T09:46:03;10.55;;;9.55;;
16468;SDS011;8345;50.902;6.956;2023-09-12T09:48:30;9.85;;;8.95;;
16468;SDS011;8345;50.902;6.956;2023-09-12T09:51:01;9.07;;;8.18;;
16468;SDS011;8345;50.902;6.956;2023-09-12T09:53:28;8.88;;;8.02;;
16468;SDS011;8345;50.902;6.956;2023-09-12T09:56:09;8.27;;;7.43;;
16468;SDS011;8345;50.902;6.956;2023-09-12T09:58:37;9.45;;;8.55;;
16468;SDS011;8345;50.902;6.956;2023-09-12T10:01:10;9.70;;;8.80;;
16468;SDS011;8345;50.902;6.956;2023-09-12T10:03:37;8.70;;;7.75;;
16468;SDS011;8345;50.902;6.956;2023-09-12T10:06:05;9.73;;;7.95;;
16468;SDS011;8345;50.902;6.956;2023-09-12T10:08:32;11.20;;;7.07;;
16468;SDS011;8345;50.902;6.956;2023-09-12T10:11:01;8.27;;;7.20;;
16468;SDS011;8345;50.902;6.956;2023-09-12T10:13:28;8.63;;;7.93;;
16468;SDS011;8345;50.902;6.956;2023-09-12T10:15:58;8.20;;;7.18;;
16468;SDS011;8345;50.902;6.956;2023-09-12T10:18:27;8.57;;;7.88;;
16468;SDS011;8345;50.902;6.956;2023-09-12T10:20:58;8.75;;;7.88;;
16468;SDS011;8345;50.902;6.956;2023-09-12T10:23:27;9.27;;;8.50;;
16468;SDS011;8345;50.902;6.956;2023-09-12T10:25:57;9.95;;;8.95;;
16468;SDS011;8345;50.902;6.956;2023-09-12T10:28:25;9.00;;;8.20;;
16468;SDS011;8345;50.902;6.956;2023-09-12T10:30:52;8.13;;;7.30;;
16468;SDS011;8345;50.902;6.956;2023-09-12T10:33:20;7.85;;;7.15;;
16468;SDS011;8345;50.902;6.956;2023-09-12T10:35:49;8.60;;;7.90;;
16468;SDS011;8345;50.902;6.956;2023-09-12T10:38:17;9.18;;;6.53;;
16468;SDS011;8345;50.902;6.956;2023-09-12T10:40:45;8.27;;;7.50;;
16468;SDS011;8345;50.902;6.956;2023-09-12T10:43:13;10.55;;;8.20;;
16468;SDS011;8345;50.902;6.956;2023-09-12T10:45:41;7.68;;;7.00;;
16468;SDS011;8345;50.902;6.956;2023-09-12T10:48:09;8.07;;;7.28;;
16468;SDS011;8345;50.902;6.956;2023-09-12T10:50:36;7.35;;;6.68;;
16468;SDS011;8345;50.902;6.956;2023-09-12T10:53:12;7.75;;;6.95;;
16468;SDS011;8345;50.902;6.956;2023-09-12T10:55:39;7.32;;;6.70;;
16468;SDS011;8345;50.902;6.956;2023-09-12T10:58:07;6.93;;;6.32;;
16468;SDS011;8345;50.902;6.956;2023-09-12T11:00:35;7.07;;;6.38;;
16468;SDS011;8345;50.902;6.956;2023-09-12T11:05:50;8.35;;;7.38;;
16468;SDS011;8345;50.902;6.956;2023-09-12T11:08:20;7.57;;;6.82;;
16468;SDS011;8345;50.902;6.956;2023-09-12T11:13:29;8.93;;;7.75;;
16468;SDS011;8345;50.902;6.956;2023-09-12T11:16:12;7.82;;;7.03;;
16468;SDS011;8345;50.902;6.956;2023-09-12T11:21:31;8.18;;;7.10;;
16468;SDS011;8345;50.902;6.956;2023-09-12T11:24:00;11.85;;;8.25;;
16468;SDS011;8345;50.902;6.956;2023-09-12T11:26:29;8.95;;;8.05;;
16468;SDS011;8345;50.902;6.956;2023-09-12T11:29:09;13.50;;;8.75;;
16468;SDS011;8345;50.902;6.956;2023-09-12T11:31:37;9.38;;;8.15;;
16468;SDS011;8345;50.902;6.956;2023-09-12T11:34:08;9.20;;;8.30;;
16468;SDS011;8345;50.902;6.956;2023-09-12T11:36:37;7.82;;;6.97;;
16468;SDS011;8345;50.902;6.956;2023-09-12T11:39:06;9.98;;;7.47;;
16468;SDS011;8345;50.902;6.956;2023-09-12T11:41:49;12.45;;;7.75;;
16468;SDS011;8345;50.902;6.956;2023-09-12T11:44:16;7.18;;;6.57;;
16468;SDS011;8345;50.902;6.956;2023-09-12T11:46:43;7.97;;;7.20;;
16468;SDS011;8345;50.902;6.956;2023-09-12T11:49:13;7.65;;;6.97;;
16468;SDS011;8345;50.902;6.956;2023-09-12T11:51:46;7.57;;;6.88;;
16468;SDS011;8345;50.902;6.956;2023-09-12T11:54:15;7.13;;;6.40;;
16468;SDS011;8345;50.902;6.956;2023-09-12T11:56:42;7.43;;;6.82;;
16468;SDS011;8345;50.902;6.956;2023-09-12T11:59:10;7.25;;;6.55;;
16468;SDS011;8345;50.902;6.956;2023-09-12T12:01:38;7.43;;;6.32;;
16468;SDS011;8345;50.902;6.956;2023-09-12T12:04:05;8.48;;;7.50;;
16468;SDS011;8345;50.902;6.956;2023-09-12T12:06:32;8.93;;;6.30;;
16468;SDS011;8345;50.902;6.956;2023-09-12T12:09:00;7.95;;;6.18;;
16468;SDS011;8345;50.902;6.956;2023-09-12T12:11:31;6.57;;;5.97;;
16468;SDS011;8345;50.902;6.956;2023-09-12T12:13:58;6.35;;;5.75;;
16468;SDS011;8345;50.902;6.956;2023-09-12T12:16:35;7.25;;;6.70;;
16468;SDS011;8345;50.902;6.956;2023-09-12T12:19:02;7.78;;;7.00;;
16468;SDS011;8345;50.902;6.956;2023-09-12T12:21:29;6.78;;;6.07;;
16468;SDS011;8345;50.902;6.956;2023-09-12T12:23:58;8.82;;;7.07;;
16468;SDS011;8345;50.902;6.956;2023-09-12T12:26:25;6.95;;;6.25;;
16468;SDS011;8345;50.902;6.956;2023-09-12T12:28:54;6.80;;;6.20;;
16468;SDS011;8345;50.902;6.956;2023-09-12T12:31:21;6.97;;;6.22;;
16468;SDS011;8345;50.902;6.956;2023-09-12T12:33:49;8.90;;;6.20;;
16468;SDS011;8345;50.902;6.956;2023-09-12T12:36:17;6.85;;;6.25;;
16468;SDS011;8345;50.902;6.956;2023-09-12T12:38:45;9.35;;;7.88;;
16468;SDS011;8345;50.902;6.956;2023-09-12T12:41:13;7.00;;;6.30;;
16468;SDS011;8345;50.902;6.956;2023-09-12T12:43:40;7.50;;;6.80;;
16468;SDS011;8345;50.902;6.956;2023-09-12T12:46:11;6.55;;;5.90;;
16468;SDS011;8345;50.902;6.956;2023-09-12T12:48:38;6.88;;;6.30;;
16468;SDS011;8345;50.902;6.956;2023-09-12T12:51:15;8.77;;;6.85;;
16468;SDS011;8345;50.902;6.956;2023-09-12T12:53:43;6.80;;;6.18;;
16468;SDS011;8345;50.902;6.956;2023-09-12T12:56:14;6.50;;;5.90;;
16468;SDS011;8345;50.902;6.956;2023-09-12T12:58:48;7.60;;;6.63;;
16468;SDS011;8345;50.902;6.956;2023-09-12T13:01:16;6.95;;;6.30;;
16468;SDS011;8345;50.902;6.956;2023-09-12T13:03:44;7.03;;;6.32;;
16468;SDS011;8345;50.902;6.956;2023-09-12T13:06:11;7.45;;;6.68;;
16468;SDS011;8345;50.902;6.956;2023-09-12T13:08:40;7.60;;;6.07;;
16468;SDS011;8345;50.902;6.956;2023-09-12T13:11:07;8.52;;;6.55;;
16468;SDS011;8345;50.902;6.956;2023-09-12T13:13:35;6.28;;;5.78;;
16468;SDS011;8345;50.902;6.956;2023-09-12T13:16:02;7.43;;;6.05;;
16468;SDS011;8345;50.902;6.956;2023-09-12T13:18:32;7.50;;;6.80;;
16468;SDS011;8345;50.902;6.956;2023-09-12T13:20:59;6.75;;;6.15;;
16468;SDS011;8345;50.902;6.956;2023-09-12T13:23:26;7.43;;;6.72;;
16468;SDS011;8345;50.902;6.956;2023-09-12T13:25:54;7.75;;;7.05;;
16468;SDS011;8345;50.902;6.956;2023-09-12T13:28:21;7.00;;;6.30;;
16468;SDS011;8345;50.902;6.956;2023-09-12T13:30:50;7.63;;;6.75;;
16468;SDS011;8345;50.902;6.956;2023-09-12T13:33:17;6.90;;;6.30;;
16468;SDS011;8345;50.902;6.956;2023-09-12T13:35:46;7.10;;;6.40;;
16468;SDS011;8345;50.902;6.956;2023-09-12T13:38:13;7.75;;;6.95;;
16468;SDS011;8345;50.902;6.956;2023-09-12T13:40:42;7.18;;;6.57;;
16468;SDS011;8345;50.902;6.956;2023-09-12T13:43:09;7.40;;;6.80;;
16468;SDS011;8345;50.902;6.956;2023-09-12T13:45:36;6.75;;;6.15;;
16468;SDS011;8345;50.902;6.956;2023-09-12T13:48:04;6.93;;;6.13;;
16468;SDS011;8345;50.902;6.956;2023-09-12T13:50:32;7.00;;;6.20;;
16468;SDS011;8345;50.902;6.956;2023-09-12T13:53:00;7.22;;;6.63;;
16468;SDS011;8345;50.902;6.956;2023-09-12T13:55:28;6.70;;;6.10;;
16468;SDS011;8345;50.902;6.956;2023-09-12T13:57:56;7.50;;;6.80;;
16468;SDS011;8345;50.902;6.956;2023-09-12T14:00:24;6.57;;;5.95;;
16468;SDS011;8345;50.902;6.956;2023-09-12T14:02:51;7.65;;;6.85;;
16468;SDS011;8345;50.902;6.956;2023-09-12T14:05:18;6.35;;;5.78;;
16468;SDS011;8345;50.902;6.956;2023-09-12T14:07:45;6.72;;;6.13;;
16468;SDS011;8345;50.902;6.956;2023-09-12T14:10:14;6.90;;;6.00;;
16468;SDS011;8345;50.902;6.956;2023-09-12T14:12:41;6.38;;;5.78;;
16468;SDS011;8345;50.902;6.956;2023-09-12T14:15:09;8.38;;;6.03;;
16468;SDS011;8345;50.902;6.956;2023-09-12T14:17:37;6.40;;;5.90;;
16468;SDS011;8345;50.902;6.956;2023-09-12T14:20:04;6.35;;;5.70;;
16468;SDS011;8345;50.902;6.956;2023-09-12T14:22:31;5.57;;;5.10;;
16468;SDS011;8345;50.902;6.956;2023-09-12T14:24:59;6.07;;;5.43;;
16468;SDS011;8345;50.902;6.956;2023-09-12T14:27:27;6.57;;;5.93;;
16468;SDS011;8345;50.902;6.956;2023-09-12T14:29:55;7.47;;;5.55;;
16468;SDS011;8345;50.902;6.956;2023-09-12T14:32:24;5.80;;;5.22;;
16468;SDS011;8345;50.902;6.956;2023-09-12T14:34:51;6.18;;;5.68;;
16468;SDS011;8345;50.902;6.956;2023-09-12T14:37:20;5.55;;;5.00;;
16468;SDS011;8345;50.902;6.956;2023-09-12T14:39:52;5.70;;;5.10;;
16468;SDS011;8345;50.902;6.956;2023-09-12T14:42:20;5.90;;;5.40;;
16468;SDS011;8345;50.902;6.956;2023-09-12T14:44:48;6.15;;;5.65;;
16468;SDS011;8345;50.902;6.956;2023-09-12T14:47:16;5.32;;;4.93;;
16468;SDS011;8345;50.902;6.956;2023-09-12T14:49:43;5.43;;;4.53;;
16468;SDS011;8345;50.902;6.956;2023-09-12T14:52:11;6.53;;;5.63;;
16468;SDS011;8345;50.902;6.956;2023-09-12T14:54:39;5.50;;;4.88;;
16468;SDS011;8345;50.902;6.956;2023-09-12T14:57:06;5.65;;;4.80;;
16468;SDS011;8345;50.902;6.956;2023-09-12T14:59:33;4.90;;;4.50;;
16468;SDS011;8345;50.902;6.956;2023-09-12T15:02:02;5.13;;;4.65;;
16468;SDS011;8345;50.902;6.956;2023-09-12T15:04:29;4.93;;;4.47;;
16468;SDS011;8345;50.902;6.956;2023-09-12T15:06:56;5.28;;;4.78;;
16468;SDS011;8345;50.902;6.956;2023-09-12T15:09:24;5.85;;;4.95;;